Time;durP1;ratioP1;P1;durP2;ratioP2;P2;SDS_P1;SDS_P2;PMS_P1;PMS_P2;Temp;Humidity;BMP_temperature;BMP_pressure;BME280_temperature;BME280_humidity;BME280_pressure;Samples;Min_cycle;Max_cycle;Signal;HPM_P1;HPM_P2
2022/10/29 00:02:16;;;;;;;;;;;;;;;14.35;78.05;98774.41;4876376;29;19928;-59
2022/10/29 00:04:44;;;;;;;;;;;;;;;14.32;78.02;98778.56;4868850;29;19928;-59
2022/10/29 00:10:04;;;;;;;;;;;;;;;14.30;78.66;98778.09;4877544;29;19932;-59
2022/10/29 00:12:33;;;;;;;;;;;;;;;14.30;78.52;98774.56;4876727;29;20026;-59
2022/10/29 00:15:01;;;;;;;;;;;;;;;14.24;78.58;98781.28;4876125;29;19963;-59
2022/10/29 00:17:28;;;;;;;;;;;;;;;14.26;78.73;98782.56;4874016;29;19943;-59
2022/10/29 00:19:57;;;;;;;;;;;;;;;14.24;78.80;98784.00;4873692;29;19928;-60
2022/10/29 00:22:25;;;;;;;;;;;;;;;14.18;78.69;98785.28;4882827;29;19932;-64
2022/10/29 00:24:53;;;;;;;;;;;;;;;14.15;78.98;98782.03;4877998;29;20343;-60
2022/10/29 00:27:24;;;;;;;;;;;;;;;14.16;79.09;98782.84;4885133;29;19959;-64
2022/10/29 00:29:54;;;;;;;;;;;;;;;14.16;79.08;98789.09;4888123;29;19928;-60
2022/10/29 00:32:23;;;;;;;;;;;;;;;14.16;78.79;98785.56;4883608;29;19928;-59
2022/10/29 00:34:51;;;;;;;;;;;;;;;14.12;78.93;98781.88;4895365;29;19943;-59
2022/10/29 00:37:19;;;;;;;;;;;;;;;14.14;79.00;98779.63;4868181;29;19954;-59
2022/10/29 00:39:46;;;;;;;;;;;;;;;14.13;79.10;98778.00;4877541;29;19932;-59
2022/10/29 00:42:15;;;;;;;;;;;;;;;14.10;79.30;98773.16;4881712;29;19959;-63
2022/10/29 00:44:43;;;;;;;;;;;;;;;14.06;79.21;98767.53;4880915;29;19936;-59
2022/10/29 00:47:18;;;;;;;;;;;;;;;14.04;79.28;98775.22;4870408;29;20011;-59
2022/10/29 00:49:46;;;;;;;;;;;;;;;13.98;79.40;98784.66;4876646;29;19932;-59
2022/10/29 00:52:14;;;;;;;;;;;;;;;13.92;79.63;98791.38;4882574;29;19931;-59
2022/10/29 00:54:42;;;;;;;;;;;;;;;13.84;80.27;98782.00;4883052;29;20397;-59
2022/10/29 00:57:11;;;;;;;;;;;;;;;13.80;80.34;98781.03;4883194;29;20421;-59
2022/10/29 00:59:38;;;;;;;;;;;;;;;13.83;80.30;98785.06;4882377;29;19927;-59
2022/10/29 01:02:07;;;;;;;;;;;;;;;13.80;80.38;98781.03;4881770;29;19995;-59
2022/10/29 01:04:37;;;;;;;;;;;;;;;13.72;80.88;98775.50;4870789;29;19931;-59
2022/10/29 01:09:57;;;;;;;;;;;;;;;13.75;80.27;98772.97;4881613;29;20047;-60
2022/10/29 01:12:31;;;;;;;;;;;;;;;13.72;80.41;98767.31;4873732;29;19928;-59
2022/10/29 01:15:01;;;;;;;;;;;;;;;13.72;80.44;98767.31;4877362;29;19935;-59
2022/10/29 01:17:30;;;;;;;;;;;;;;;13.72;80.40;98764.56;4878400;29;20135;-59
2022/10/29 01:20:09;;;;;;;;;;;;;;;13.71;80.42;98765.69;4879966;29;19934;-60
2022/10/29 01:22:38;;;;;;;;;;;;;;;13.66;80.54;98766.63;4879345;29;20322;-59
2022/10/29 01:25:13;;;;;;;;;;;;;;;13.60;80.58;98760.47;4883013;29;19932;-59
2022/10/29 01:27:55;;;;;;;;;;;;;;;13.58;80.66;98762.72;4882294;29;19934;-59
2022/10/29 01:30:27;;;;;;;;;;;;;;;13.54;80.87;98748.06;4882932;29;20446;-59
2022/10/29 01:33:02;;;;;;;;;;;;;;;13.52;80.84;98747.56;4879091;29;20007;-58
2022/10/29 01:35:34;;;;;;;;;;;;;;;13.50;80.89;98749.00;4878569;29;19932;-58
2022/10/29 01:38:05;;;;;;;;;;;;;;;13.50;80.86;98741.63;4872027;29;19964;-59
2022/10/29 01:40:35;;;;;;;;;;;;;;;13.45;81.20;98735.47;4879344;29;19927;-59
2022/10/29 01:43:04;;;;;;;;;;;;;;;13.43;81.40;98737.72;4882332;29;19928;-59
2022/10/29 01:45:33;;;;;;;;;;;;;;;13.42;81.30;98736.88;4879867;29;19984;-59
2022/10/29 01:48:04;;;;;;;;;;;;;;;13.40;81.48;98739.13;4880329;29;19934;-59
2022/10/29 01:50:34;;;;;;;;;;;;;;;13.40;81.49;98732.88;4874730;29;19924;-59
2022/10/29 01:53:03;;;;;;;;;;;;;;;13.35;82.02;98726.41;4880130;29;20273;-59
2022/10/29 01:55:34;;;;;;;;;;;;;;;13.37;82.06;98731.56;4873277;29;19931;-59
2022/10/29 01:58:02;;;;;;;;;;;;;;;13.39;81.95;98731.25;4871697;29;19928;-59
2022/10/29 02:16:56;;;;;;;;;;;;;;;13.30;81.97;98731.97;4713517;29;19943;-59
2022/10/29 02:19:28;;;;;;;;;;;;;;;13.27;82.50;98729.88;4874133;29;19928;-59
2022/10/29 02:21:55;;;;;;;;;;;;;;;13.29;82.07;98724.91;4892019;29;19928;-58
2022/10/29 02:24:24;;;;;;;;;;;;;;;13.27;82.31;98720.91;4875543;29;19928;-59
2022/10/29 02:26:52;;;;;;;;;;;;;;;13.24;82.09;98724.22;4875735;29;20003;-59
2022/10/29 02:29:19;;;;;;;;;;;;;;;13.27;81.83;98729.09;4873455;29;20006;-59
2022/10/29 02:31:47;;;;;;;;;;;;;;;13.26;81.80;98716.53;4857599;29;19932;-59
2022/10/29 02:34:18;;;;;;;;;;;;;;;13.23;82.27;98717.16;4867998;29;20322;-59
2022/10/29 02:36:46;;;;;;;;;;;;;;;13.23;82.13;98719.91;4873040;29;20389;-59
2022/10/29 02:39:14;;;;;;;;;;;;;;;13.22;82.00;98715.56;4876416;29;19938;-59
2022/10/29 02:41:41;;;;;;;;;;;;;;;13.19;81.84;98719.66;4881854;29;19932;-59
2022/10/29 02:44:09;;;;;;;;;;;;;;;13.17;82.18;98718.38;4878870;29;19932;-59
2022/10/29 02:49:31;;;;;;;;;;;;;;;13.09;82.85;98711.72;4877991;29;19932;-59
2022/10/29 02:51:59;;;;;;;;;;;;;;;13.11;82.29;98715.75;4872188;29;19932;-59
2022/10/29 02:54:26;;;;;;;;;;;;;;;13.13;82.39;98715.44;4863240;29;19932;-59
2022/10/29 02:56:54;;;;;;;;;;;;;;;13.09;82.40;98704.34;4878477;29;19939;-59
2022/10/29 02:59:22;;;;;;;;;;;;;;;13.09;82.35;98709.78;4878193;29;19967;-59
2022/10/29 03:01:50;;;;;;;;;;;;;;;13.14;82.05;98713.53;4880042;29;19928;-59
2022/10/29 03:04:18;;;;;;;;;;;;;;;13.08;82.10;98710.91;4884556;29;19935;-59
2022/10/29 03:06:48;;;;;;;;;;;;;;;13.08;81.84;98710.91;4878875;29;19932;-58
2022/10/29 03:09:16;;;;;;;;;;;;;;;13.05;82.15;98711.53;4873572;29;20370;-59
2022/10/29 03:11:44;;;;;;;;;;;;;;;13.02;82.10;98706.69;4877775;29;19927;-59
2022/10/29 03:14:12;;;;;;;;;;;;;;;13.03;81.85;98705.56;4876429;29;19932;-58
2022/10/29 03:16:40;;;;;;;;;;;;;;;13.00;81.81;98698.03;4868964;29;19928;-59
2022/10/29 03:19:10;;;;;;;;;;;;;;;12.97;81.94;98695.91;4879100;29;19928;-58
2022/10/29 03:21:38;;;;;;;;;;;;;;;12.95;81.89;98694.59;4876608;29;19927;-59
2022/10/29 03:24:07;;;;;;;;;;;;;;;12.94;82.01;98692.97;4889336;29;19979;-58
2022/10/29 03:26:35;;;;;;;;;;;;;;;12.90;82.28;98686.53;4883723;29;19931;-59
2022/10/29 03:29:03;;;;;;;;;;;;;;;12.87;82.18;98693.41;4879270;29;20437;-59
2022/10/29 03:31:31;;;;;;;;;;;;;;;12.83;82.35;98684.22;4874594;29;19963;-59
2022/10/29 03:33:59;;;;;;;;;;;;;;;12.81;82.24;98687.25;4878162;29;20389;-59
2022/10/29 03:36:27;;;;;;;;;;;;;;;12.83;82.35;98689.66;4873378;29;19958;-59
2022/10/29 03:38:54;;;;;;;;;;;;;;;12.78;82.34;98689.78;4883477;29;20281;-60
2022/10/29 03:41:24;;;;;;;;;;;;;;;12.74;82.74;98683.34;4867262;29;19931;-59
2022/10/29 03:43:52;;;;;;;;;;;;;;;12.73;82.50;98693.44;4870234;29;19943;-60
2022/10/29 03:46:20;;;;;;;;;;;;;;;12.69;82.80;98699.81;4868443;29;19931;-59
2022/10/29 03:48:49;;;;;;;;;;;;;;;12.70;82.96;98688.59;4875898;29;20318;-59
2022/10/29 03:51:17;;;;;;;;;;;;;;;12.71;83.06;98689.41;4876835;29;19935;-59
2022/10/29 03:53:45;;;;;;;;;;;;;;;12.74;82.74;98692.31;4872502;29;19927;-58
2022/10/29 03:56:13;;;;;;;;;;;;;;;12.77;82.75;98709.97;4867620;29;19928;-58
2022/10/29 03:58:42;;;;;;;;;;;;;;;12.74;82.53;98707.88;4870494;29;20072;-59
2022/10/29 04:01:10;;;;;;;;;;;;;;;12.75;82.77;98701.31;4866229;29;19943;-59
2022/10/29 04:03:41;;;;;;;;;;;;;;;12.74;82.77;98713.34;4870437;29;19934;-59
2022/10/29 04:06:09;;;;;;;;;;;;;;;12.72;82.40;98712.81;4867886;29;20372;-58
2022/10/29 04:08:37;;;;;;;;;;;;;;;12.67;83.12;98718.38;4876057;29;20385;-59
2022/10/29 04:11:06;;;;;;;;;;;;;;;12.68;82.50;98718.09;4873462;29;19935;-59
2022/10/29 04:13:34;;;;;;;;;;;;;;;12.71;82.65;98722.91;4873372;29;19927;-59
2022/10/29 04:16:04;;;;;;;;;;;;;;;12.69;82.06;98729.81;4886148;29;19935;-59
2022/10/29 04:18:32;;;;;;;;;;;;;;;12.63;82.39;98736.47;4874694;29;20453;-60
2022/10/29 04:21:01;;;;;;;;;;;;;;;12.69;82.10;98732.53;4873151;29;20520;-59
2022/10/29 04:23:49;;;;;;;;;;;;;;;12.67;82.21;98740.19;4871291;29;20390;-60
2022/10/29 04:26:37;;;;;;;;;;;;;;;12.57;82.30;98739.31;4873622;29;19939;-58
2022/10/29 04:29:24;;;;;;;;;;;;;;;12.53;82.21;98738.28;4871780;29;19943;-59
2022/10/29 04:31:53;;;;;;;;;;;;;;;12.51;82.67;98745.94;4871793;29;20386;-59
2022/10/29 04:34:21;;;;;;;;;;;;;;;12.54;82.78;98742.63;4874182;29;19928;-59
2022/10/29 04:36:51;;;;;;;;;;;;;;;12.51;82.73;98740.50;4875397;29;19932;-59
2022/10/29 04:39:20;;;;;;;;;;;;;;;12.50;83.24;98744.34;4874875;29;20393;-59
2022/10/29 04:41:52;;;;;;;;;;;;;;;12.58;82.65;98746.38;4874265;29;19983;-59
2022/10/29 04:44:20;;;;;;;;;;;;;;;12.56;82.74;98747.75;4866225;29;19936;-59
2022/10/29 04:46:48;;;;;;;;;;;;;;;12.50;83.04;98738.06;4867898;29;19927;-59
2022/10/29 04:49:18;;;;;;;;;;;;;;;12.52;82.80;98736.69;4873112;29;19935;-60
2022/10/29 04:51:46;;;;;;;;;;;;;;;12.49;82.44;98744.66;4869579;29;19981;-59
2022/10/29 04:54:14;;;;;;;;;;;;;;;12.43;83.13;98737.69;4869826;29;20027;-59
2022/10/29 04:56:42;;;;;;;;;;;;;;;12.47;82.78;98747.69;4874190;29;20306;-59
2022/10/29 04:59:10;;;;;;;;;;;;;;;12.40;82.96;98743.72;4872005;29;20015;-59
2022/10/29 05:01:38;;;;;;;;;;;;;;;12.45;82.89;98738.19;4866269;29;19935;-59
2022/10/29 05:04:06;;;;;;;;;;;;;;;12.35;83.10;98731.00;4867879;29;19968;-59
2022/10/29 05:09:51;;;;;;;;;;;;;;;12.37;82.42;98731.53;4875148;29;19969;-58
2022/10/29 05:12:19;;;;;;;;;;;;;;;12.41;82.44;98732.56;4882528;29;19932;-59
2022/10/29 05:14:47;;;;;;;;;;;;;;;12.41;81.99;98727.09;4878330;29;19940;-59
2022/10/29 05:17:40;;;;;;;;;;;;;;;12.44;81.99;98736.56;4871182;29;19934;-58
2022/10/29 05:20:08;;;;;;;;;;;;;;;12.42;81.83;98733.34;4877089;29;19934;-59
2022/10/29 05:22:38;;;;;;;;;;;;;;;12.41;81.64;98731.72;4877999;29;19932;-58
2022/10/29 05:25:30;;;;;;;;;;;;;;;12.38;81.59;98727.69;4871746;29;20031;-58
2022/10/29 05:28:01;;;;;;;;;;;;;;;12.37;81.75;98723.34;4880377;29;19975;-59
2022/10/29 05:30:29;;;;;;;;;;;;;;;12.35;82.00;98722.03;4859371;29;19932;-58
2022/10/29 05:32:57;;;;;;;;;;;;;;;12.28;82.02;98728.69;4875860;29;20393;-58
2022/10/29 05:35:25;;;;;;;;;;;;;;;12.33;81.85;98725.88;4873942;29;19943;-59
2022/10/29 05:37:55;;;;;;;;;;;;;;;12.38;81.79;98732.34;4876943;29;19943;-58
2022/10/29 05:40:50;;;;;;;;;;;;;;;12.40;81.55;98732.81;4877770;29;19932;-58
2022/10/29 05:43:44;;;;;;;;;;;;;;;12.42;81.59;98734.16;4869789;29;19928;-58
2022/10/29 05:46:11;;;;;;;;;;;;;;;12.46;81.33;98737.88;4865966;29;19936;-58
2022/10/29 05:48:39;;;;;;;;;;;;;;;12.50;81.06;98744.34;4873385;29;19935;-57
2022/10/29 05:51:07;;;;;;;;;;;;;;;12.44;81.12;98739.28;4876241;29;20289;-58
2022/10/29 05:53:37;;;;;;;;;;;;;;;12.39;81.30;98742.94;4873067;29;19940;-58
2022/10/29 05:56:05;;;;;;;;;;;;;;;12.42;81.18;98742.34;4872753;29;19929;-58
2022/10/29 05:58:32;;;;;;;;;;;;;;;12.42;81.30;98742.34;4875228;29;19940;-58
2022/10/29 06:01:00;;;;;;;;;;;;;;;12.46;81.22;98747.97;4873267;29;19928;-58
2022/10/29 06:03:28;;;;;;;;;;;;;;;12.45;81.06;98752.59;4872611;29;19928;-58
2022/10/29 06:05:57;;;;;;;;;;;;;;;12.49;80.85;98753.63;4887838;29;20415;-59
2022/10/29 06:08:24;;;;;;;;;;;;;;;12.48;80.68;98752.03;4875158;29;19935;-59
2022/10/29 06:10:54;;;;;;;;;;;;;;;12.42;80.75;98757.88;4874024;29;19935;-59
2022/10/29 06:13:22;;;;;;;;;;;;;;;12.46;80.92;98759.66;4869446;29;19967;-59
2022/10/29 06:15:50;;;;;;;;;;;;;;;12.44;81.33;98770.06;4877354;29;19927;-59
2022/10/29 06:18:18;;;;;;;;;;;;;;;12.48;81.10;98762.13;4875340;29;19931;-59
2022/10/29 06:20:46;;;;;;;;;;;;;;;12.46;81.37;98765.13;4877374;29;19935;-59
2022/10/29 06:23:14;;;;;;;;;;;;;;;12.28;82.08;98758.66;4874197;29;19927;-58
2022/10/29 06:25:42;;;;;;;;;;;;;;;12.36;82.09;98759.91;4876246;29;19942;-60
2022/10/29 06:28:13;;;;;;;;;;;;;;;12.49;81.34;98755.56;4871741;29;19935;-59
2022/10/29 06:30:45;;;;;;;;;;;;;;;12.53;81.00;98754.66;4874330;29;19932;-59
2022/10/29 06:33:13;;;;;;;;;;;;;;;12.51;81.24;98756.84;4870628;29;20031;-59
2022/10/29 06:35:40;;;;;;;;;;;;;;;12.53;81.19;98754.66;4892619;29;19928;-59
2022/10/29 06:38:09;;;;;;;;;;;;;;;12.57;80.88;98754.84;4877005;29;19942;-60
2022/10/29 06:40:42;;;;;;;;;;;;;;;12.55;81.01;98751.59;4878463;29;19927;-59
2022/10/29 06:43:12;;;;;;;;;;;;;;;12.52;81.12;98753.03;4876633;29;20356;-58
2022/10/29 06:45:40;;;;;;;;;;;;;;;12.51;81.21;98751.41;4868611;29;19963;-59
2022/10/29 06:48:08;;;;;;;;;;;;;;;12.51;81.46;98751.41;4876060;29;19928;-59
2022/10/29 06:50:35;;;;;;;;;;;;;;;12.53;81.74;98760.09;4871581;29;19928;-59
2022/10/29 06:53:04;;;;;;;;;;;;;;;12.58;81.78;98760.00;4876944;29;19928;-59
2022/10/29 06:55:32;;;;;;;;;;;;;;;12.62;81.74;98754.72;4874921;29;20039;-58
2022/10/29 06:58:00;;;;;;;;;;;;;;;12.67;81.63;98748.38;4875419;29;19928;-59
2022/10/29 07:00:30;;;;;;;;;;;;;;;12.69;81.80;98749.69;4866622;29;19934;-59
2022/10/29 07:02:59;;;;;;;;;;;;;;;12.73;81.91;98747.13;4874618;29;20382;-58
2022/10/29 07:05:27;;;;;;;;;;;;;;;12.75;81.84;98751.19;4873789;29;19928;-58
2022/10/29 07:07:55;;;;;;;;;;;;;;;12.80;81.39;98745.63;4876137;29;19928;-59
2022/10/29 07:10:24;;;;;;;;;;;;;;;12.85;81.69;98744.72;4869382;29;20018;-59
2022/10/29 07:12:52;;;;;;;;;;;;;;;12.84;81.63;98741.19;4876633;29;19928;-59
2022/10/29 07:15:20;;;;;;;;;;;;;;;12.89;81.81;98745.72;4866151;29;19932;-59
2022/10/29 07:17:57;;;;;;;;;;;;;;;12.91;81.74;98754.41;4877209;29;19928;-59
2022/10/29 07:20:25;;;;;;;;;;;;;;;12.93;81.87;98754.09;4872374;29;19934;-59
2022/10/29 07:22:53;;;;;;;;;;;;;;;12.97;82.19;98750.44;4874421;29;19928;-60
2022/10/29 07:25:21;;;;;;;;;;;;;;;13.01;82.03;98753.38;4874094;29;19988;-59
2022/10/29 07:27:49;;;;;;;;;;;;;;;13.03;82.07;98746.50;4875944;29;19927;-59
2022/10/29 07:30:17;;;;;;;;;;;;;;;13.10;81.81;98740.59;4869116;29;19976;-57
2022/10/29 07:32:45;;;;;;;;;;;;;;;13.13;81.66;98752.84;4873418;29;19928;-59
2022/10/29 07:35:14;;;;;;;;;;;;;;;13.17;81.44;98746.47;4874640;29;20022;-59
2022/10/29 07:37:43;;;;;;;;;;;;;;;13.22;81.74;98749.09;4866051;29;19936;-59
2022/10/29 07:40:11;;;;;;;;;;;;;;;13.27;81.66;98759.91;4874291;29;19935;-59
2022/10/29 07:42:39;;;;;;;;;;;;;;;13.34;81.74;98752.09;4884699;29;20271;-59
2022/10/29 07:45:08;;;;;;;;;;;;;;;13.40;81.70;98749.25;4873556;29;19928;-59
2022/10/29 07:47:36;;;;;;;;;;;;;;;13.44;81.31;98750.25;4864388;29;19928;-59
2022/10/29 07:50:04;;;;;;;;;;;;;;;13.49;81.37;98756.38;4875645;29;19954;-60
2022/10/29 07:52:33;;;;;;;;;;;;;;;13.58;81.17;98757.25;4870696;29;20022;-60
2022/10/29 07:55:01;;;;;;;;;;;;;;;13.60;80.99;98759.69;4874629;29;19931;-59
2022/10/29 07:57:29;;;;;;;;;;;;;;;13.59;80.81;98758.88;4888814;29;19928;-59
2022/10/29 07:59:57;;;;;;;;;;;;;;;13.66;80.37;98763.09;4870276;29;19989;-59
2022/10/29 08:02:25;;;;;;;;;;;;;;;13.63;79.94;98762.59;4872991;29;19928;-59
2022/10/29 08:04:53;;;;;;;;;;;;;;;13.67;79.75;98757.31;4872621;29;19932;-59
2022/10/29 08:07:21;;;;;;;;;;;;;;;13.68;79.41;98758.13;4875496;29;19951;-59
2022/10/29 08:09:50;;;;;;;;;;;;;;;13.68;79.35;98752.66;4870940;29;19928;-59
2022/10/29 08:12:20;;;;;;;;;;;;;;;13.73;79.50;98747.06;4875949;29;19935;-59
2022/10/29 08:14:48;;;;;;;;;;;;;;;13.85;79.01;98748.13;4871223;29;20442;-59
2022/10/29 08:20:12;;;;;;;;;;;;;;;13.92;77.94;98755.88;4865985;29;20026;-59
2022/10/29 08:23:05;;;;;;;;;;;;;;;14.01;77.88;98759.47;4868084;29;20310;-59
2022/10/29 08:26:01;;;;;;;;;;;;;;;14.04;78.21;98758.81;4877318;29;19932;-59
2022/10/29 08:28:30;;;;;;;;;;;;;;;14.14;77.41;98757.75;4872174;29;20365;-59
2022/10/29 08:31:02;;;;;;;;;;;;;;;14.15;77.56;98753.91;4868698;29;19936;-59
2022/10/29 08:33:29;;;;;;;;;;;;;;;14.24;77.69;98752.03;4872296;29;19932;-58
2022/10/29 08:36:22;;;;;;;;;;;;;;;14.33;77.41;98750.16;4860481;29;20023;-58
2022/10/29 08:38:53;;;;;;;;;;;;;;;14.35;77.21;98747.88;4867014;29;19932;-58
2022/10/29 08:41:27;;;;;;;;;;;;;;;14.39;76.85;98748.88;4874837;29;19950;-58
2022/10/29 08:44:10;;;;;;;;;;;;;;;14.39;77.80;98753.53;4869885;29;19988;-58
2022/10/29 08:46:40;;;;;;;;;;;;;;;14.47;77.31;98758.25;4869453;29;19928;-58
2022/10/29 08:49:34;;;;;;;;;;;;;;;14.51;77.47;98761.97;4876998;29;19932;-57
2022/10/29 08:52:03;;;;;;;;;;;;;;;14.50;77.20;98760.38;4877888;29;20086;-57
2022/10/29 08:54:31;;;;;;;;;;;;;;;14.61;77.22;98766.34;4887947;29;20059;-59
2022/10/29 08:57:02;;;;;;;;;;;;;;;14.63;77.14;98762.16;4877257;29;19934;-58
2022/10/29 08:59:29;;;;;;;;;;;;;;;14.73;76.89;98760.28;4888701;29;19932;-58
2022/10/29 09:01:57;;;;;;;;;;;;;;;14.75;76.06;98760.75;4862113;29;19976;-58
2022/10/29 09:04:26;;;;;;;;;;;;;;;14.89;76.17;98761.44;4870272;29;19939;-58
2022/10/29 09:07:12;;;;;;;;;;;;;;;14.99;76.12;98768.53;4870869;29;20152;-58
2022/10/29 09:09:41;;;;;;;;;;;;;;;15.07;75.46;98774.00;4882806;29;19927;-58
2022/10/29 09:12:16;;;;;;;;;;;;;;;15.10;75.95;98773.38;4883702;29;19934;-58
2022/10/29 09:14:51;;;;;;;;;;;;;;;15.19;75.28;98776.16;4874736;29;19935;-57
2022/10/29 09:17:26;;;;;;;;;;;;;;;15.23;75.54;98766.13;4869996;29;19933;-58
2022/10/29 09:20:12;;;;;;;;;;;;;;;15.28;74.99;98768.72;4875527;29;19931;-58
2022/10/29 09:23:04;;;;;;;;;;;;;;;15.34;74.91;98763.88;4877228;29;20015;-58
2022/10/29 09:25:33;;;;;;;;;;;;;;;15.41;74.97;98762.28;4882011;29;19927;-59
2022/10/29 09:28:06;;;;;;;;;;;;;;;15.45;75.06;98757.78;4880956;29;19951;-58
2022/10/29 09:30:36;;;;;;;;;;;;;;;15.50;74.91;98754.09;4873453;29;19992;-58
2022/10/29 09:33:06;;;;;;;;;;;;;;;15.55;74.77;98751.16;4872169;29;20322;-59
2022/10/29 09:35:38;;;;;;;;;;;;;;;15.65;74.97;98750.06;4876066;29;20374;-58
2022/10/29 09:38:07;;;;;;;;;;;;;;;15.71;74.68;98757.81;4891165;29;19931;-58
2022/10/29 09:40:36;;;;;;;;;;;;;;;15.78;74.91;98759.25;4875527;29;20425;-58
2022/10/29 09:43:07;;;;;;;;;;;;;;;15.90;73.91;98751.16;4875635;29;20315;-57
2022/10/29 09:45:39;;;;;;;;;;;;;;;16.05;73.44;98747.91;4874037;29;20388;-58
2022/10/29 09:48:09;;;;;;;;;;;;;;;16.23;73.11;98743.97;4876389;29;19928;-57
2022/10/29 09:50:39;;;;;;;;;;;;;;;16.43;72.80;98741.63;4885012;29;19964;-57
2022/10/29 09:53:07;;;;;;;;;;;;;;;16.58;72.63;98741.09;4872479;29;19928;-59
2022/10/29 09:55:38;;;;;;;;;;;;;;;16.70;72.28;98735.69;4877113;29;19931;-58
2022/10/29 09:58:11;;;;;;;;;;;;;;;16.83;71.64;98733.06;4876115;29;19935;-58
2022/10/29 10:00:39;;;;;;;;;;;;;;;16.90;71.49;98736.09;4869835;29;19928;-58
2022/10/29 10:03:08;;;;;;;;;;;;;;;16.93;71.67;98738.97;4885136;29;19971;-58
2022/10/29 10:05:36;;;;;;;;;;;;;;;16.96;70.66;98734.75;4869250;29;19935;-58
2022/10/29 10:08:06;;;;;;;;;;;;;;;16.99;70.59;98737.66;4877677;29;20282;-58
2022/10/29 10:10:34;;;;;;;;;;;;;;;17.02;70.82;98730.69;4875127;29;20010;-58
2022/10/29 10:13:02;;;;;;;;;;;;;;;17.07;70.59;98733.22;4877469;29;19932;-58
2022/10/29 10:15:33;;;;;;;;;;;;;;;17.09;70.18;98717.22;4873614;29;19951;-58
2022/10/29 10:18:02;;;;;;;;;;;;;;;17.08;70.89;98726.59;4880251;29;19938;-59
2022/10/29 10:20:32;;;;;;;;;;;;;;;17.17;70.24;98726.53;4878545;29;19932;-60
2022/10/29 10:22:59;;;;;;;;;;;;;;;17.21;70.04;98725.53;4878645;29;19928;-59
2022/10/29 10:25:31;;;;;;;;;;;;;;;17.24;70.24;98727.59;4881510;29;19973;-59
2022/10/29 10:28:03;;;;;;;;;;;;;;;17.33;69.94;98718.50;4877806;29;19940;-59
2022/10/29 10:30:32;;;;;;;;;;;;;;;17.37;69.65;98713.94;4866216;29;19990;-58
2022/10/29 10:33:10;;;;;;;;;;;;;;;17.43;69.39;98704.34;4878684;29;19978;-59
2022/10/29 10:35:38;;;;;;;;;;;;;;;17.50;69.25;98707.34;4874199;29;19927;-59
2022/10/29 10:38:30;;;;;;;;;;;;;;;17.56;69.25;98703.25;4879179;29;19939;-60
2022/10/29 10:41:05;;;;;;;;;;;;;;;17.61;69.93;98704.97;4868619;29;20022;-58
2022/10/29 10:43:35;;;;;;;;;;;;;;;17.69;69.31;98698.63;4880361;29;19963;-58
2022/10/29 10:46:05;;;;;;;;;;;;;;;17.74;69.08;98701.97;4873926;29;19931;-59
2022/10/29 10:48:34;;;;;;;;;;;;;;;17.85;68.57;98696.06;4877933;29;19951;-59
2022/10/29 10:51:09;;;;;;;;;;;;;;;17.93;68.05;98689.66;4881018;29;19983;-58
2022/10/29 10:56:30;;;;;;;;;;;;;;;18.05;67.30;98695.94;4866033;29;20645;-59
2022/10/29 10:59:23;;;;;;;;;;;;;;;18.04;67.41;98690.81;4873011;29;19931;-58
2022/10/29 11:01:53;;;;;;;;;;;;;;;18.15;66.92;98696.66;4869883;29;19934;-59
2022/10/29 11:04:21;;;;;;;;;;;;;;;18.21;66.35;98692.53;4877621;29;19928;-59
2022/10/29 11:06:50;;;;;;;;;;;;;;;18.31;66.37;98689.34;4872112;29;19935;-58
2022/10/29 11:09:20;;;;;;;;;;;;;;;18.40;65.87;98689.25;4878706;29;20392;-58
2022/10/29 11:11:51;;;;;;;;;;;;;;;18.45;65.67;98689.81;4876923;29;19928;-59
2022/10/29 11:14:31;;;;;;;;;;;;;;;18.52;65.00;98681.78;4878495;29;20349;-59
2022/10/29 11:17:01;;;;;;;;;;;;;;;18.48;65.83;98693.81;4868849;29;19931;-58
2022/10/29 11:19:30;;;;;;;;;;;;;;;18.50;65.53;98680.53;4870867;29;19928;-59
2022/10/29 11:22:04;;;;;;;;;;;;;;;18.55;64.69;98678.34;4880960;29;20438;-59
2022/10/29 11:24:37;;;;;;;;;;;;;;;18.62;64.21;98674.22;4874616;29;19954;-59
2022/10/29 11:27:06;;;;;;;;;;;;;;;18.80;64.46;98670.06;4875642;29;19935;-58
2022/10/29 11:29:35;;;;;;;;;;;;;;;18.93;63.97;98670.88;4877264;29;19932;-59
2022/10/29 11:32:06;;;;;;;;;;;;;;;19.01;63.60;98669.91;4873193;29;20390;-59
2022/10/29 11:34:38;;;;;;;;;;;;;;;19.06;63.13;98672.41;4888275;29;20357;-58
2022/10/29 11:37:12;;;;;;;;;;;;;;;19.10;63.10;98670.56;4873289;29;19932;-59
2022/10/29 11:39:42;;;;;;;;;;;;;;;19.16;62.68;98665.63;4871311;29;20048;-58
2022/10/29 11:42:12;;;;;;;;;;;;;;;19.28;62.69;98663.66;4876126;29;19963;-58
2022/10/29 11:44:40;;;;;;;;;;;;;;;19.37;61.67;98657.97;4876618;29;20387;-58
2022/10/29 11:47:13;;;;;;;;;;;;;;;19.47;61.66;98659.41;4875346;29;19928;-58
2022/10/29 11:49:46;;;;;;;;;;;;;;;19.57;60.69;98653.41;4872647;29;19934;-59
2022/10/29 11:52:15;;;;;;;;;;;;;;;19.63;60.41;98646.50;4874823;29;20022;-58
2022/10/29 11:54:50;;;;;;;;;;;;;;;19.67;59.88;98657.63;4866450;29;19943;-58
2022/10/29 11:57:18;;;;;;;;;;;;;;;19.69;58.87;98647.84;4876877;29;19934;-59
2022/10/29 11:59:52;;;;;;;;;;;;;;;19.70;59.13;98641.16;4876265;29;19947;-58
2022/10/29 12:02:25;;;;;;;;;;;;;;;19.72;59.48;98644.38;4863009;29;20309;-59
2022/10/29 12:04:54;;;;;;;;;;;;;;;19.71;59.56;98634.53;4873730;29;20018;-59
2022/10/29 12:07:25;;;;;;;;;;;;;;;19.68;59.62;98631.66;4870695;29;19928;-59
2022/10/29 12:10:04;;;;;;;;;;;;;;;19.67;59.21;98628.09;4872827;29;19999;-60
2022/10/29 12:12:34;;;;;;;;;;;;;;;19.70;58.85;98624.63;4862037;29;19932;-59
2022/10/29 12:15:04;;;;;;;;;;;;;;;19.73;58.93;98614.88;4875056;29;19935;-58
2022/10/29 12:17:34;;;;;;;;;;;;;;;19.80;58.75;98612.28;4872752;29;19935;-59
2022/10/29 12:20:03;;;;;;;;;;;;;;;19.88;58.63;98614.88;4874842;29;19938;-59
2022/10/29 12:22:34;;;;;;;;;;;;;;;19.98;58.79;98612.75;4875507;29;19932;-59
2022/10/29 12:25:04;;;;;;;;;;;;;;;20.04;58.32;98605.81;4868510;29;19932;-59
2022/10/29 12:27:34;;;;;;;;;;;;;;;20.05;57.87;98602.69;4873435;29;19936;-59
2022/10/29 12:30:04;;;;;;;;;;;;;;;20.08;58.56;98606.66;4869191;29;19932;-59
2022/10/29 12:32:33;;;;;;;;;;;;;;;20.19;58.11;98599.47;4868193;29;19944;-58
2022/10/29 12:35:05;;;;;;;;;;;;;;;20.23;57.51;98596.78;4875846;29;20326;-58
2022/10/29 12:37:36;;;;;;;;;;;;;;;20.23;57.88;98591.25;4876909;29;19935;-58
2022/10/29 12:40:12;;;;;;;;;;;;;;;20.22;57.66;98595.19;4862993;29;19928;-59
2022/10/29 12:42:41;;;;;;;;;;;;;;;20.18;57.80;98589.56;4866455;29;19928;-59
2022/10/29 12:45:14;;;;;;;;;;;;;;;20.14;58.05;98583.19;4868975;29;19935;-59
2022/10/29 12:47:45;;;;;;;;;;;;;;;20.12;57.99;98577.22;4880892;29;19938;-59
2022/10/29 12:50:19;;;;;;;;;;;;;;;20.11;59.03;98578.38;4872782;29;19932;-58
2022/10/29 12:52:47;;;;;;;;;;;;;;;20.10;58.97;98582.28;4870592;29;19975;-59
2022/10/29 12:55:15;;;;;;;;;;;;;;;20.10;58.81;98572.06;4871693;29;20301;-59
2022/10/29 12:58:11;;;;;;;;;;;;;;;20.12;59.01;98579.97;4866376;29;20348;-59
2022/10/29 13:00:48;;;;;;;;;;;;;;;20.08;58.78;98576.31;4869045;29;20003;-59
2022/10/29 13:03:35;;;;;;;;;;;;;;;20.09;59.05;98575.97;4873659;29;19928;-59
2022/10/29 13:06:28;;;;;;;;;;;;;;;20.08;59.14;98573.56;4877203;29;19928;-59
2022/10/29 13:08:58;;;;;;;;;;;;;;;20.04;59.00;98570.75;4850123;29;19936;-59
2022/10/29 13:11:26;;;;;;;;;;;;;;;20.04;58.93;98573.50;4877250;29;20018;-59
2022/10/29 13:13:57;;;;;;;;;;;;;;;20.04;59.36;98569.94;4879830;29;19928;-59
2022/10/29 13:16:26;;;;;;;;;;;;;;;20.03;59.46;98565.59;4879831;29;20382;-59
2022/10/29 13:19:15;;;;;;;;;;;;;;;19.97;59.29;98565.03;4876455;29;19936;-59
2022/10/29 13:22:02;;;;;;;;;;;;;;;19.96;59.38;98554.38;4865636;29;19928;-58
2022/10/29 13:24:31;;;;;;;;;;;;;;;19.94;59.68;98556.69;4874440;29;19932;-59
2022/10/29 13:27:02;;;;;;;;;;;;;;;19.97;59.65;98555.97;4876745;29;20389;-59
2022/10/29 13:29:40;;;;;;;;;;;;;;;19.96;59.31;98554.38;4878285;29;19931;-58
2022/10/29 13:32:08;;;;;;;;;;;;;;;19.97;59.20;98555.97;4863205;29;19976;-59
2022/10/29 13:34:48;;;;;;;;;;;;;;;19.94;59.57;98551.19;4875468;29;19935;-59
2022/10/29 13:37:35;;;;;;;;;;;;;;;19.91;59.32;98551.88;4866394;29;19928;-58
2022/10/29 13:40:24;;;;;;;;;;;;;;;19.91;59.64;98552.69;4890340;29;19986;-59
2022/10/29 13:42:55;;;;;;;;;;;;;;;19.91;59.99;98546.38;4876371;29;19974;-59